Time;durP1;ratioP1;P1;durP2;ratioP2;P2;SDS_P1;SDS_P2;PMS_P1;PMS_P2;Temp;Humidity;BMP_temperature;BMP_pressure;BME280_temperature;BME280_humidity;BME280_pressure;Samples;Min_cycle;Max_cycle;Signal;HPM_P1;HPM_P2
2021/03/24 00:01:45;;;;;;;15.63;6.80;;;;;;;5.96;61.69;100637.73;115393;1199;102845;-76
2021/03/24 00:04:13;;;;;;;12.80;6.63;;;;;;;5.92;61.74;100647.22;115307;1199;103066;-75
2021/03/24 00:06:42;;;;;;;13.47;6.90;;;;;;;5.89;61.50;100648.95;115543;1198;103025;-76
2021/03/24 00:09:15;;;;;;;12.47;6.60;;;;;;;5.85;61.58;100644.66;115615;1199;103047;-75
2021/03/24 00:11:42;;;;;;;11.50;6.23;;;;;;;5.81;62.04;100643.83;115280;1197;104296;-76
2021/03/24 00:14:09;;;;;;;13.40;6.20;;;;;;;5.76;61.97;100640.42;115504;1197;102980;-76
2021/03/24 00:16:36;;;;;;;10.40;6.23;;;;;;;5.71;62.03;100637.84;115603;1198;104550;-76
2021/03/24 00:19:03;;;;;;;13.77;6.30;;;;;;;5.70;61.79;100650.79;115410;1199;103012;-76
2021/03/24 00:21:31;;;;;;;11.87;6.60;;;;;;;5.69;62.24;100649.07;115467;1199;103088;-76
2021/03/24 00:23:58;;;;;;;11.20;5.57;;;;;;;5.67;62.19;100645.64;115397;1199;103523;-76
2021/03/24 00:26:25;;;;;;;14.97;6.50;;;;;;;5.66;62.04;100651.69;115378;1199;103126;-77
2021/03/24 00:28:53;;;;;;;14.10;6.10;;;;;;;5.66;62.10;100649.09;115408;1199;103031;-75
2021/03/24 00:31:21;;;;;;;13.07;6.00;;;;;;;5.63;62.52;100654.30;115535;1198;102979;-76
2021/03/24 00:33:50;;;;;;;11.47;6.43;;;;;;;5.61;62.35;100656.03;115589;1199;103072;-76
2021/03/24 00:36:18;;;;;;;11.87;6.23;;;;;;;5.58;62.68;100654.33;115588;1200;102983;-76
2021/03/24 00:38:45;;;;;;;12.30;7.17;;;;;;;5.55;62.41;100659.48;115404;1200;103550;-76
2021/03/24 00:41:12;;;;;;;12.57;6.83;;;;;;;5.51;62.65;100652.62;115301;1200;103104;-76
2021/03/24 00:43:40;;;;;;;11.53;6.80;;;;;;;5.47;62.71;100658.68;115533;1198;103163;-76
2021/03/24 00:46:07;;;;;;;13.97;6.97;;;;;;;5.44;62.56;100654.39;115315;1200;102857;-76
2021/03/24 00:48:35;;;;;;;12.20;6.37;;;;;;;5.43;62.87;100657.84;115566;1199;103066;-76
2021/03/24 00:51:04;;;;;;;13.70;6.97;;;;;;;5.41;62.89;100651.82;115607;1199;103099;-76
2021/03/24 00:53:32;;;;;;;14.80;7.10;;;;;;;5.40;62.99;100647.52;115582;1199;103095;-76
2021/03/24 00:55:59;;;;;;;15.33;7.97;;;;;;;5.38;63.25;100651.81;115468;1199;103150;-75
2021/03/24 00:58:26;;;;;;;15.20;7.30;;;;;;;5.33;63.38;100648.39;115298;1199;103047;-76
2021/03/24 01:00:54;;;;;;;13.80;6.87;;;;;;;5.30;63.31;100647.55;115291;1199;102971;-76
2021/03/24 01:03:21;;;;;;;13.17;7.30;;;;;;;5.26;63.37;100651.88;115284;1199;104649;-75
2021/03/24 01:05:50;;;;;;;14.27;7.43;;;;;;;5.25;63.36;100654.48;115317;1199;105137;-76
2021/03/24 01:08:21;;;;;;;14.53;7.67;;;;;;;5.20;63.69;100651.88;115284;1199;103207;-76
2021/03/24 01:10:49;;;;;;;12.43;6.67;;;;;;;5.15;63.55;100654.50;115613;1199;103009;-75
2021/03/24 01:13:18;;;;;;;15.07;7.40;;;;;;;5.09;63.75;100662.28;115280;1199;102979;-76
2021/03/24 01:15:45;;;;;;;13.17;7.00;;;;;;;5.04;63.83;100658.00;115667;1199;103031;-75
2021/03/24 01:18:13;;;;;;;13.07;6.70;;;;;;;5.04;63.68;100658.86;115589;1198;103073;-76
2021/03/24 01:20:42;;;;;;;12.90;6.73;;;;;;;5.03;63.94;100669.21;115574;1199;103400;-76
2021/03/24 01:23:10;;;;;;;13.60;6.67;;;;;;;5.02;63.91;100663.15;115580;1199;103195;-75
2021/03/24 01:25:39;;;;;;;12.60;7.30;;;;;;;5.03;64.08;100669.21;115462;1200;103111;-76
2021/03/24 01:28:10;;;;;;;11.60;6.30;;;;;;;5.01;63.82;100657.98;115418;1199;103064;-76
2021/03/24 01:30:37;;;;;;;15.37;7.63;;;;;;;5.01;64.01;100663.16;115575;1199;103028;-75
2021/03/24 01:33:05;;;;;;;16.53;8.07;;;;;;;4.99;64.16;100665.75;115266;1199;103063;-75
2021/03/24 01:35:33;;;;;;;14.10;6.60;;;;;;;4.95;64.00;100663.18;115324;1199;103172;-75
2021/03/24 01:38:00;;;;;;;11.03;6.03;;;;;;;4.92;63.88;100669.22;115314;1199;103101;-76
2021/03/24 01:40:35;;;;;;;13.67;6.30;;;;;;;4.92;64.07;100668.36;115335;1199;102827;-76
2021/03/24 01:43:08;;;;;;;15.73;6.70;;;;;;;4.92;64.20;100663.20;115435;1200;103045;-75
2021/03/24 01:45:35;;;;;;;11.83;6.70;;;;;;;4.90;64.11;100664.92;115491;1198;103235;-75
2021/03/24 01:48:04;;;;;;;13.18;6.83;;;;;;;4.85;64.17;100658.05;115597;1200;102990;-76
2021/03/24 01:50:38;;;;;;;11.50;6.77;;;;;;;4.83;63.99;100656.30;115319;1198;102989;-75
2021/03/24 01:53:17;;;;;;;11.97;6.13;;;;;;;4.81;64.08;100658.89;115569;1199;103047;-76
2021/03/24 01:55:46;;;;;;;12.45;6.35;;;;;;;4.79;64.09;100655.46;115557;1199;103099;-77
2021/03/24 01:58:13;;;;;;;12.97;6.30;;;;;;;4.76;64.51;100652.89;115521;1199;103158;-76
2021/03/24 02:00:47;;;;;;;13.10;6.85;;;;;;;4.74;64.44;100657.20;115549;1200;102974;-76
2021/03/24 02:03:14;;;;;;;14.73;6.50;;;;;;;4.72;64.81;100656.34;115485;1200;103027;-76
2021/03/24 02:05:46;;;;;;;13.00;6.95;;;;;;;4.70;64.55;100660.66;115328;1200;103185;-76
2021/03/24 02:08:22;;;;;;;17.50;7.57;;;;;;;4.66;64.69;100661.50;115578;1199;103210;-76
2021/03/24 02:11:04;;;;;;;14.23;6.65;;;;;;;4.64;64.74;100662.38;115331;1199;103128;-76
2021/03/24 02:13:43;;;;;;;17.67;6.97;;;;;;;4.62;64.91;100666.69;115512;1200;103024;-75
2021/03/24 02:16:28;;;;;;;11.17;7.00;;;;;;;4.59;64.97;100664.97;115364;1200;103031;-76
2021/03/24 02:18:59;;;;;;;12.23;6.17;;;;;;;4.53;64.93;100665.84;115528;1199;103104;-76
2021/03/24 02:21:35;;;;;;;16.03;7.10;;;;;;;4.51;65.14;100674.47;115307;1199;103413;-76
2021/03/24 02:24:17;;;;;;;14.00;6.90;;;;;;;4.50;65.00;100670.16;115293;1200;103040;-76
2021/03/24 02:26:47;;;;;;;12.90;7.03;;;;;;;4.48;65.15;100672.72;115563;1199;103054;-76
2021/03/24 02:29:20;;;;;;;10.87;6.47;;;;;;;4.48;65.28;100677.88;115279;1199;103120;-76
2021/03/24 02:31:49;;;;;;;18.03;9.47;;;;;;;4.46;65.44;100673.58;115527;1199;103412;-76
2021/03/24 02:34:23;;;;;;;15.80;8.13;;;;;;;4.44;65.42;100675.31;115343;1200;103116;-76
2021/03/24 02:36:53;;;;;;;14.57;7.97;;;;;;;4.44;65.50;100683.05;115251;1199;103172;-77
2021/03/24 02:39:24;;;;;;;13.13;7.30;;;;;;;4.44;66.05;100677.89;115596;1200;103136;-76
2021/03/24 02:41:54;;;;;;;15.00;7.90;;;;;;;4.41;65.68;100688.23;115512;1198;103453;-76
2021/03/24 02:44:22;;;;;;;14.97;7.10;;;;;;;4.41;65.77;100694.25;115547;1200;103075;-76
2021/03/24 02:46:51;;;;;;;13.50;7.70;;;;;;;4.40;66.29;100691.67;115406;1198;102992;-76
2021/03/24 02:49:19;;;;;;;14.83;7.33;;;;;;;4.36;66.23;100689.95;115306;1200;102980;-76
2021/03/24 02:51:47;;;;;;;13.93;7.50;;;;;;;4.34;66.15;100689.09;115356;1199;103247;-76
2021/03/24 02:54:19;;;;;;;15.13;8.57;;;;;;;4.31;66.51;100695.13;115514;1199;102928;-76
2021/03/24 02:56:47;;;;;;;16.90;7.97;;;;;;;4.29;66.32;100701.13;115284;1200;102569;-76
2021/03/24 02:59:16;;;;;;;16.50;7.73;;;;;;;4.26;66.34;100699.41;115299;1199;102400;-76
2021/03/24 03:01:50;;;;;;;18.87;8.40;;;;;;;4.27;66.54;100702.84;115529;1198;103174;-75
2021/03/24 03:04:32;;;;;;;17.27;8.53;;;;;;;4.25;66.85;100697.69;115566;1200;103210;-76
2021/03/24 03:07:07;;;;;;;17.43;8.60;;;;;;;4.25;66.70;100700.27;115333;1200;103277;-76
2021/03/24 03:09:45;;;;;;;17.17;8.50;;;;;;;4.22;66.88;100701.13;115345;1198;103060;-75
2021/03/24 03:12:40;;;;;;;14.97;7.63;;;;;;;4.23;67.32;100695.11;115584;1200;103071;-77
2021/03/24 03:15:15;;;;;;;15.67;8.70;;;;;;;4.20;67.15;100699.41;115283;1199;102862;-76
2021/03/24 03:17:49;;;;;;;15.37;8.20;;;;;;;4.22;67.21;100703.71;115581;1199;103009;-75
2021/03/24 03:20:31;;;;;;;19.67;9.10;;;;;;;4.23;67.39;100701.99;115308;1200;103008;-76
2021/03/24 03:23:12;;;;;;;14.77;7.97;;;;;;;4.25;67.34;100708.02;115433;1199;103086;-75
2021/03/24 03:25:41;;;;;;;14.77;8.00;;;;;;;4.29;67.30;100706.29;115607;1199;103008;-75
2021/03/24 03:28:16;;;;;;;19.63;8.53;;;;;;;4.31;67.11;100708.04;115537;1200;102996;-76
2021/03/24 03:30:49;;;;;;;14.67;8.47;;;;;;;4.35;67.21;100706.31;115441;1200;103111;-76
2021/03/24 03:33:22;;;;;;;14.70;8.55;;;;;;;4.38;67.33;100707.17;115306;1200;103022;-75
2021/03/24 03:35:52;;;;;;;16.67;9.00;;;;;;;4.41;67.18;100706.30;115554;1199;102996;-76
2021/03/24 03:38:22;;;;;;;18.20;9.00;;;;;;;4.45;67.36;100702.86;115604;1199;103126;-76
2021/03/24 03:40:52;;;;;;;15.20;8.67;;;;;;;4.47;67.20;100707.16;115290;1198;102958;-77
2021/03/24 03:43:21;;;;;;;18.63;9.37;;;;;;;4.49;67.21;100699.44;115287;1200;103112;-76
2021/03/24 03:45:50;;;;;;;15.83;8.53;;;;;;;4.51;67.31;100703.73;115541;1200;103024;-76
2021/03/24 03:48:20;;;;;;;17.43;8.60;;;;;;;4.54;67.36;100702.88;115506;1199;103137;-75
2021/03/24 03:50:52;;;;;;;14.53;8.60;;;;;;;4.56;67.29;100701.14;115450;1200;103085;-76
2021/03/24 03:53:38;;;;;;;15.17;8.63;;;;;;;4.58;67.28;100702.00;115554;1198;103104;-76
2021/03/24 03:56:18;;;;;;;15.17;9.20;;;;;;;4.57;67.08;100705.45;115547;1199;103120;-76
2021/03/24 03:58:57;;;;;;;16.90;8.80;;;;;;;4.58;67.05;100704.58;115451;1199;103117;-76
2021/03/24 04:01:29;;;;;;;20.13;8.80;;;;;;;4.59;67.32;100714.05;115284;1198;103095;-77
2021/03/24 04:04:27;;;;;;;19.83;9.43;;;;;;;4.61;67.30;100703.72;115354;1199;103044;-76
2021/03/24 04:07:09;;;;;;;19.23;8.73;;;;;;;4.55;67.27;100699.42;115308;1200;103101;-76
2021/03/24 04:09:39;;;;;;;16.93;9.40;;;;;;;4.54;67.18;100708.03;115610;1199;102844;-76
2021/03/24 04:12:13;;;;;;;15.60;9.03;;;;;;;4.53;67.33;100703.73;115583;1199;103018;-76
2021/03/24 04:14:43;;;;;;;19.97;9.60;;;;;;;4.52;67.50;100709.77;115244;1199;103060;-77
2021/03/24 04:17:14;;;;;;;16.43;9.13;;;;;;;4.51;67.31;100708.05;115458;1199;103050;-76
2021/03/24 04:19:48;;;;;;;18.93;9.40;;;;;;;4.50;67.49;100708.91;115242;1199;103088;-76
2021/03/24 04:22:18;;;;;;;16.87;9.67;;;;;;;4.46;67.44;100704.58;115588;1199;103092;-76
2021/03/24 04:24:50;;;;;;;18.47;9.93;;;;;;;4.44;67.73;100708.88;115247;1200;102986;-76
2021/03/24 04:27:18;;;;;;;20.50;9.67;;;;;;;4.43;67.78;100709.74;115505;1199;103057;-76
2021/03/24 04:29:53;;;;;;;19.20;9.87;;;;;;;4.42;67.59;100708.02;115565;1199;103076;-77
2021/03/24 04:32:21;;;;;;;20.43;9.90;;;;;;;4.43;67.70;100709.74;115508;1199;104233;-77
2021/03/24 04:34:48;;;;;;;18.47;9.50;;;;;;;4.44;67.71;100708.88;115607;1199;103054;-76
2021/03/24 04:37:34;;;;;;;20.13;9.60;;;;;;;4.46;67.69;100714.91;115440;1199;103009;-76
2021/03/24 04:40:30;;;;;;;19.07;9.37;;;;;;;4.46;67.76;100715.77;115566;1200;103200;-76
2021/03/24 04:43:07;;;;;;;15.80;9.05;;;;;;;4.48;67.58;100714.05;115329;1199;103123;-75
2021/03/24 04:45:47;;;;;;;18.97;9.70;;;;;;;4.50;67.61;100719.23;115540;1198;102983;-76
2021/03/24 04:48:18;;;;;;;15.97;9.47;;;;;;;4.52;67.63;100717.52;115479;1198;103085;-76
2021/03/24 04:51:08;;;;;;;20.10;9.67;;;;;;;4.51;67.48;100716.65;115338;1197;103034;-77
2021/03/24 04:54:10;;;;;;;16.03;10.17;;;;;;;4.53;67.55;100721.81;115529;1200;103014;-76
2021/03/24 04:56:40;;;;;;;14.60;9.75;;;;;;;4.53;67.51;100720.09;115130;1202;103487;-77
2021/03/24 04:59:13;;;;;;;16.07;9.40;;;;;;;4.53;67.44;100726.98;115164;1203;103053;-76
2021/03/24 05:01:55;;;;;;;18.00;10.40;;;;;;;4.54;67.50;100729.56;115038;1200;103162;-76
2021/03/24 05:04:36;;;;;;;19.20;10.77;;;;;;;4.54;67.51;100731.28;115191;1202;102980;-76
2021/03/24 05:07:47;;;;;;;15.97;10.27;;;;;;;4.58;67.47;100737.30;115148;1203;102996;-77
2021/03/24 05:10:21;;;;;;;17.80;10.40;;;;;;;4.60;67.43;100743.33;115180;1203;103031;-77
2021/03/24 05:12:55;;;;;;;18.80;11.00;;;;;;;4.63;67.46;100745.91;115031;1203;103331;-76
2021/03/24 05:15:27;;;;;;;19.23;10.90;;;;;;;4.67;67.44;100750.20;115118;1202;102903;-76
2021/03/24 05:17:56;;;;;;;19.17;10.70;;;;;;;4.69;67.47;100751.95;114981;1202;103223;-76
2021/03/24 05:20:53;;;;;;;21.10;10.70;;;;;;;4.72;67.25;100757.12;115264;1203;103098;-76
2021/03/24 05:23:23;;;;;;;17.57;9.70;;;;;;;4.70;67.46;100751.09;115194;1203;103131;-76
2021/03/24 05:26:04;;;;;;;22.40;10.80;;;;;;;4.69;67.25;100758.84;115012;1200;103168;-75
2021/03/24 05:28:42;;;;;;;20.73;11.00;;;;;;;4.70;67.29;100757.98;114998;1202;103121;-76
2021/03/24 05:31:21;;;;;;;20.10;11.73;;;;;;;4.69;67.43;100761.44;115151;1203;103002;-76
2021/03/24 05:33:56;;;;;;;18.87;11.20;;;;;;;4.69;67.22;100762.29;115255;1199;103025;-76
2021/03/24 05:36:35;;;;;;;23.13;12.40;;;;;;;4.71;67.51;100762.29;115326;1200;103110;-75
2021/03/24 05:39:21;;;;;;;20.75;11.35;;;;;;;4.74;67.41;100755.39;115261;1200;103111;-76
2021/03/24 05:42:20;;;;;;;19.57;12.20;;;;;;;4.74;67.22;100763.14;115291;1200;103009;-75
2021/03/24 05:44:47;;;;;;;18.93;11.47;;;;;;;4.77;67.26;100768.30;115415;1199;103107;-76
2021/03/24 05:47:34;;;;;;;18.88;11.43;;;;;;;4.80;67.36;100770.02;115447;1199;103098;-76
2021/03/24 05:50:23;;;;;;;19.78;11.68;;;;;;;4.87;67.47;100760.56;115401;1199;103021;-76
2021/03/24 05:53:13;;;;;;;29.40;16.07;;;;;;;4.92;67.35;100767.44;115587;1200;103259;-76
2021/03/24 05:56:14;;;;;;;23.83;12.57;;;;;;;5.01;67.58;100761.39;115546;1199;102983;-76
2021/03/24 05:58:55;;;;;;;20.50;11.70;;;;;;;5.06;67.06;100765.71;115269;1198;103136;-75
2021/03/24 06:01:43;;;;;;;21.35;11.60;;;;;;;5.13;67.06;100771.72;115608;1199;103105;-76
2021/03/24 06:04:29;;;;;;;26.53;13.60;;;;;;;5.20;66.95;100768.25;115561;1198;102973;-76
2021/03/24 06:07:20;;;;;;;21.30;12.60;;;;;;;5.27;66.82;100767.39;115556;1199;103424;-75
2021/03/24 06:10:30;;;;;;;20.03;12.50;;;;;;;5.36;66.90;100764.77;115273;1198;103059;-75
2021/03/24 06:13:09;;;;;;;20.87;12.80;;;;;;;5.42;66.42;100759.59;115517;1200;103009;-76
2021/03/24 06:15:57;;;;;;;21.70;11.70;;;;;;;5.49;66.40;100763.02;115476;1200;103008;-75
2021/03/24 06:18:42;;;;;;;19.33;11.33;;;;;;;5.54;66.08;100757.81;115578;1199;103062;-76
2021/03/24 06:21:39;;;;;;;17.95;11.35;;;;;;;5.59;65.86;100756.95;115450;1198;103037;-76
2021/03/24 06:24:31;;;;;;;19.67;10.97;;;;;;;5.65;65.52;100762.09;115528;1199;103095;-76
2021/03/24 06:27:10;;;;;;;19.87;11.43;;;;;;;5.72;65.47;100752.56;115513;1200;103117;-76
2021/03/24 06:29:56;;;;;;;21.00;12.40;;;;;;;5.82;65.66;100751.67;115288;1200;102982;-76
2021/03/24 06:32:58;;;;;;;19.37;11.50;;;;;;;5.92;65.07;100755.95;115476;1200;103088;-76
2021/03/24 06:35:59;;;;;;;21.97;12.10;;;;;;;5.98;65.31;100766.30;115081;1202;104863;-76
2021/03/24 06:38:37;;;;;;;21.60;13.60;;;;;;;6.10;64.99;100767.09;114999;1203;102819;-76
2021/03/24 06:41:04;;;;;;;21.10;14.20;;;;;;;6.16;64.43;100767.07;115011;1203;103056;-77
2021/03/24 06:44:07;;;;;;;24.90;14.73;;;;;;;6.20;64.69;100772.22;115000;1203;103165;-77
2021/03/24 06:47:00;;;;;;;28.13;17.50;;;;;;;6.33;64.56;100773.02;115036;1202;103178;-76
2021/03/24 06:49:46;;;;;;;29.90;19.10;;;;;;;6.49;64.26;100779.81;114956;1203;102947;-76
2021/03/24 06:52:28;;;;;;;27.70;17.85;;;;;;;6.60;64.14;100784.90;114990;1203;103024;-76
2021/03/24 06:55:24;;;;;;;27.13;17.80;;;;;;;6.68;64.13;100783.13;115009;1201;103248;-76
2021/03/24 06:58:21;;;;;;;31.50;18.80;;;;;;;6.79;63.73;100791.66;115044;1202;103139;-75
2021/03/24 07:01:32;;;;;;;29.85;18.00;;;;;;;6.90;63.84;100796.77;114939;1203;103146;-76
2021/03/24 07:04:20;;;;;;;27.60;16.60;;;;;;;7.02;63.17;100801.00;114943;1202;103255;-77
2021/03/24 07:07:14;;;;;;;20.80;14.70;;;;;;;7.02;63.21;100801.86;115138;1203;103049;-77
2021/03/24 07:10:00;;;;;;;19.60;12.90;;;;;;;7.02;62.60;100807.05;114978;1203;103357;-78
2021/03/24 07:12:51;;;;;;;18.83;12.33;;;;;;;6.98;62.73;100810.52;115265;1198;103172;-77
2021/03/24 07:15:36;;;;;;;24.57;12.50;;;;;;;7.01;62.66;100810.52;115345;1200;103188;-76
2021/03/24 07:18:15;;;;;;;21.33;12.97;;;;;;;7.07;62.71;100810.45;115526;1200;103034;-76
2021/03/24 07:21:21;;;;;;;20.63;12.63;;;;;;;7.18;62.45;100808.64;115563;1199;103133;-77
2021/03/24 07:24:05;;;;;;;30.03;16.33;;;;;;;7.31;62.11;100816.28;115308;1198;103028;-76
2021/03/24 07:26:54;;;;;;;23.20;13.57;;;;;;;7.47;62.86;100820.45;115499;1199;102977;-78
2021/03/24 07:29:39;;;;;;;22.53;12.27;;;;;;;7.64;62.34;100812.48;115383;1197;103063;-77
2021/03/24 07:32:13;;;;;;;17.27;11.43;;;;;;;7.75;61.71;100815.83;115572;1197;102825;-79
2021/03/24 07:34:59;;;;;;;31.33;17.70;;;;;;;7.83;61.18;100820.05;115315;1199;103044;-77
2021/03/24 07:37:55;;;;;;;21.33;13.10;;;;;;;7.92;60.97;100813.03;115563;1199;103037;-78
2021/03/24 07:40:42;;;;;;;18.70;11.77;;;;;;;7.94;60.61;100816.47;115356;1199;102986;-77
2021/03/24 07:43:31;;;;;;;19.83;11.77;;;;;;;8.00;60.55;100826.77;115561;1200;102323;-77
2021/03/24 07:46:23;;;;;;;21.00;12.45;;;;;;;8.04;60.37;100831.05;115270;1199;102918;-78
2021/03/24 07:49:19;;;;;;;21.10;12.90;;;;;;;8.16;60.15;100829.16;115600;1199;103130;-78
2021/03/24 07:51:52;;;;;;;20.30;12.33;;;;;;;8.30;60.17;100831.59;115347;1198;103069;-77
2021/03/24 07:54:34;;;;;;;26.57;13.63;;;;;;;8.45;59.86;100828.81;115301;1199;103468;-78
2021/03/24 07:57:17;;;;;;;22.17;13.50;;;;;;;8.60;60.09;100834.65;115330;1199;103082;-77
2021/03/24 07:59:57;;;;;;;23.63;13.33;;;;;;;8.74;59.22;100838.77;115305;1199;103056;-77
2021/03/24 08:02:36;;;;;;;23.20;13.50;;;;;;;8.80;59.34;100840.44;115368;1198;103140;-78
2021/03/24 08:05:19;;;;;;;26.67;13.90;;;;;;;8.90;59.23;100839.39;115552;1198;103629;-77
2021/03/24 08:08:09;;;;;;;29.57;14.07;;;;;;;9.00;59.12;100835.77;115579;1199;104089;-78
2021/03/24 08:10:58;;;;;;;29.27;14.27;;;;;;;9.11;58.68;100839.92;115290;1198;103005;-78
2021/03/24 08:13:43;;;;;;;23.30;12.97;;;;;;;9.18;58.20;100838.95;115239;1198;103124;-79
2021/03/24 08:17:02;;;;;;;19.00;12.45;;;;;;;9.18;57.94;100836.36;115295;1200;103056;-78
2021/03/24 08:20:04;;;;;;;19.00;12.60;;;;;;;9.21;57.90;100847.56;115166;1203;103188;-79
2021/03/24 08:22:58;;;;;;;27.25;12.60;;;;;;;9.30;57.99;100844.79;115028;1203;103012;-78
2021/03/24 08:25:43;;;;;;;23.25;13.35;;;;;;;9.37;57.33;100836.00;115050;1202;103050;-78
2021/03/24 08:28:30;;;;;;;19.50;12.10;;;;;;;9.36;57.02;100838.64;115030;1200;103145;-78
2021/03/24 08:31:18;;;;;;;20.40;12.40;;;;;;;9.27;57.01;100843.98;115176;1202;103296;-78
2021/03/24 08:34:03;;;;;;;21.73;11.93;;;;;;;9.30;56.52;100846.53;115010;1202;103140;-78
2021/03/24 08:36:48;;;;;;;23.13;11.77;;;;;;;9.24;56.89;100850.11;114998;1202;103533;-77
2021/03/24 08:39:35;;;;;;;19.03;11.30;;;;;;;9.18;56.55;100839.81;115223;1203;103222;-77
2021/03/24 08:42:50;;;;;;;17.25;11.05;;;;;;;9.10;56.64;100839.06;114999;1203;103162;-78
2021/03/24 08:45:33;;;;;;;16.17;11.07;;;;;;;9.04;56.45;100841.78;115170;1202;103040;-78
2021/03/24 08:48:07;;;;;;;16.80;11.00;;;;;;;9.05;56.55;100836.55;115189;1201;103162;-77
2021/03/24 08:50:42;;;;;;;20.67;11.73;;;;;;;9.08;56.71;100844.30;115084;1203;102160;-78
2021/03/24 08:53:42;;;;;;;17.25;11.95;;;;;;;8.96;56.87;100839.28;115018;1202;103031;-78
2021/03/24 08:56:31;;;;;;;22.63;12.57;;;;;;;8.93;57.16;100838.48;115185;1199;103050;-78
2021/03/24 08:59:27;;;;;;;20.77;12.60;;;;;;;9.04;57.56;100834.83;115596;1199;103028;-78
2021/03/24 09:01:57;;;;;;;26.53;14.33;;;;;;;9.17;57.46;100832.03;115623;1199;103011;-78
2021/03/24 09:04:58;;;;;;;16.47;11.37;;;;;;;9.24;56.75;100833.64;115555;1199;102961;-77
2021/03/24 09:08:11;;;;;;;17.40;11.33;;;;;;;9.21;56.68;100831.09;115435;1199;103177;-79
2021/03/24 09:10:42;;;;;;;19.97;11.63;;;;;;;9.17;56.85;100832.89;115451;1200;103573;-78
2021/03/24 09:13:44;;;;;;;18.83;11.83;;;;;;;9.17;56.87;100832.03;115327;1199;103088;-78
2021/03/24 09:16:56;;;;;;;16.65;10.00;;;;;;;9.21;56.18;100828.48;115402;1199;103133;-77
2021/03/24 09:19:46;;;;;;;15.97;9.27;;;;;;;9.25;56.45;100830.14;115527;1198;103080;-77
2021/03/24 09:22:37;;;;;;;14.37;9.00;;;;;;;9.27;55.96;100828.38;115579;1200;102976;-78
2021/03/24 09:25:36;;;;;;;21.27;13.63;;;;;;;9.27;56.17;100823.17;115545;1199;103011;-78
2021/03/24 09:28:34;;;;;;;21.70;14.55;;;;;;;9.32;55.97;100826.54;115323;1200;103504;-78
2021/03/24 09:31:17;;;;;;;17.07;10.27;;;;;;;9.33;55.69;100823.91;115587;1197;102986;-78
2021/03/24 09:33:52;;;;;;;18.23;10.37;;;;;;;9.29;55.60;100826.59;115456;1199;101303;-78
2021/03/24 09:37:10;;;;;;;17.27;9.97;;;;;;;9.34;55.78;100824.80;115330;1199;103076;-77
2021/03/24 09:39:51;;;;;;;14.00;8.85;;;;;;;9.50;55.80;100821.00;115014;1202;103139;-77
2021/03/24 09:42:31;;;;;;;17.53;10.13;;;;;;;9.61;55.60;100818.20;115053;1203;102989;-78
2021/03/24 09:45:14;;;;;;;16.47;10.00;;;;;;;9.68;55.39;100812.84;115252;1203;103040;-78
2021/03/24 09:47:58;;;;;;;13.85;9.35;;;;;;;9.74;55.01;100813.63;115017;1203;103063;-78
2021/03/24 09:50:39;;;;;;;15.40;9.10;;;;;;;9.74;55.10;100814.48;115030;1202;103245;-78
2021/03/24 09:53:11;;;;;;;13.10;8.60;;;;;;;9.69;54.72;100809.38;114974;1202;103107;-77
2021/03/24 09:55:43;;;;;;;13.40;8.45;;;;;;;9.66;54.63;100806.80;115003;1203;103133;-79
2021/03/24 09:58:27;;;;;;;14.20;8.80;;;;;;;9.61;54.67;100808.64;115220;1202;103021;-78
2021/03/24 10:01:11;;;;;;;11.90;7.73;;;;;;;9.58;54.58;100807.85;115239;1202;103192;-78
2021/03/24 10:04:09;;;;;;;13.07;8.33;;;;;;;9.51;54.79;100804.48;115068;1202;103262;-78
2021/03/24 10:06:49;;;;;;;10.80;7.25;;;;;;;9.47;54.54;100805.44;115212;1202;103088;-79
2021/03/24 10:09:34;;;;;;;13.97;8.50;;;;;;;9.35;54.29;100800.48;115053;1202;103222;-78
2021/03/24 10:12:35;;;;;;;12.80;8.50;;;;;;;9.27;54.49;100810.15;115052;1202;103731;-78
2021/03/24 10:15:05;;;;;;;12.33;7.93;;;;;;;9.25;54.58;100809.33;115096;1198;103059;-78
2021/03/24 10:17:38;;;;;;;16.10;8.50;;;;;;;9.24;54.47;100805.00;115594;1199;103072;-79
2021/03/24 10:20:37;;;;;;;13.20;8.87;;;;;;;9.16;54.47;100805.16;115503;1199;102810;-77
2021/03/24 10:23:14;;;;;;;13.10;7.97;;;;;;;9.12;54.73;100807.81;115328;1200;102806;-77
2021/03/24 10:25:49;;;;;;;15.60;8.33;;;;;;;9.09;54.57;100799.17;115273;1199;103005;-78
2021/03/24 10:28:34;;;;;;;12.87;8.30;;;;;;;9.12;54.73;100805.21;115565;1199;103207;-77
2021/03/24 10:31:26;;;;;;;12.73;8.23;;;;;;;9.08;54.37;100799.20;115274;1200;103260;-76
2021/03/24 10:33:59;;;;;;;12.07;7.53;;;;;;;9.07;54.70;100789.69;115477;1200;103118;-77
2021/03/24 10:36:36;;;;;;;15.93;8.27;;;;;;;9.04;54.29;100801.01;115566;1199;102809;-77
2021/03/24 10:39:07;;;;;;;11.57;8.23;;;;;;;9.03;54.32;100788.88;115334;1199;103198;-78
2021/03/24 10:41:34;;;;;;;14.10;8.23;;;;;;;9.01;54.79;100790.66;115296;1199;103093;-78
2021/03/24 10:44:08;;;;;;;12.57;7.80;;;;;;;8.99;54.64;100792.43;115564;1199;103083;-78
2021/03/24 10:46:46;;;;;;;15.20;8.97;;;;;;;8.94;54.87;100788.16;115449;1198;103143;-79
2021/03/24 10:49:30;;;;;;;11.77;8.07;;;;;;;8.88;54.81;100789.14;115560;1199;103031;-78
2021/03/24 10:52:19;;;;;;;16.63;10.43;;;;;;;8.86;55.52;100785.70;115476;1199;103054;-77
2021/03/24 10:54:58;;;;;;;17.23;10.73;;;;;;;8.77;55.81;100784.09;115303;1199;103046;-79
2021/03/24 10:57:43;;;;;;;18.93;10.67;;;;;;;8.69;55.98;100785.12;115346;1200;103149;-79
2021/03/24 11:00:17;;;;;;;19.40;10.43;;;;;;;8.62;56.40;100791.31;115281;1197;103035;-77
2021/03/24 11:03:17;;;;;;;17.17;11.03;;;;;;;8.57;56.77;100793.10;115587;1198;103014;-78
2021/03/24 11:06:05;;;;;;;17.60;11.70;;;;;;;8.51;57.06;100788.86;115262;1199;103078;-77
2021/03/24 11:08:41;;;;;;;16.50;10.60;;;;;;;8.46;57.34;100788.94;115369;1199;103054;-76
2021/03/24 11:11:39;;;;;;;15.47;10.30;;;;;;;8.42;57.66;100792.44;115377;1200;102980;-79
2021/03/24 11:14:15;;;;;;;16.15;10.95;;;;;;;8.42;57.61;100781.19;115356;1199;103056;-79
2021/03/24 11:17:05;;;;;;;16.40;10.43;;;;;;;8.46;57.42;100788.94;115409;1198;103057;-79
2021/03/24 11:19:44;;;;;;;15.97;10.60;;;;;;;8.54;57.69;100780.16;115551;1198;103019;-81
2021/03/24 11:22:14;;;;;;;17.47;10.23;;;;;;;8.67;57.18;100776.48;115520;1199;101880;-79
2021/03/24 11:24:55;;;;;;;17.47;10.43;;;;;;;8.79;57.06;100784.07;115754;1199;102985;-80
2021/03/24 11:27:29;;;;;;;18.20;10.23;;;;;;;9.01;57.08;100775.05;115532;1198;103219;-79
2021/03/24 11:30:11;;;;;;;15.70;9.77;;;;;;;9.16;56.70;100773.06;115582;1197;103874;-80
2021/03/24 11:33:06;;;;;;;21.47;10.47;;;;;;;9.25;56.01;100770.28;115722;1200;103188;-79
2021/03/24 11:36:03;;;;;;;17.10;10.60;;;;;;;9.27;56.08;100768.50;115480;1199;103021;-79
2021/03/24 11:38:49;;;;;;;16.63;10.47;;;;;;;9.28;55.88;100767.62;115519;1198;104250;-80
2021/03/24 11:41:24;;;;;;;17.67;9.80;;;;;;;9.25;55.66;100770.28;115688;1198;103027;-80
2021/03/24 11:44:02;;;;;;;14.47;10.13;;;;;;;9.21;55.99;100771.23;115517;1197;103064;-80
2021/03/24 11:46:41;;;;;;;17.73;10.67;;;;;;;9.11;55.81;100772.27;115372;1199;103030;-78
2021/03/24 11:49:17;;;;;;;17.37;10.77;;;;;;;9.06;55.68;100772.36;115679;1199;103092;-79
2021/03/24 11:52:06;;;;;;;16.07;10.87;;;;;;;9.04;55.80;100759.38;115744;1198;101575;-79
2021/03/24 11:54:48;;;;;;;17.10;10.70;;;;;;;9.00;56.07;100772.47;115386;1198;103047;-79
2021/03/24 11:58:07;;;;;;;19.27;10.30;;;;;;;8.94;56.04;100773.41;115646;1199;103025;-78
2021/03/24 12:00:56;;;;;;;15.70;10.15;;;;;;;8.88;55.83;100776.13;115334;1203;102983;-80
2021/03/24 12:03:31;;;;;;;19.53;10.90;;;;;;;8.77;55.84;100772.84;115375;1203;103053;-79
2021/03/24 12:06:10;;;;;;;15.60;11.25;;;;;;;8.73;56.15;100771.17;115373;1201;103247;-79